sensor_id;sensor_type;location;lat;lon;timestamp;P1;durP1;ratioP1;P2;durP2;ratioP2
21721;SDS011;11023;48.274;7.794;2023-03-21T00:01:37;4.22;;;1.95;;
21721;SDS011;11023;48.274;7.794;2023-03-21T00:04:03;2.10;;;1.85;;
21721;SDS011;11023;48.274;7.794;2023-03-21T00:06:29;2.53;;;1.80;;
21721;SDS011;11023;48.274;7.794;2023-03-21T00:08:55;2.67;;;1.70;;
21721;SDS011;11023;48.274;7.794;2023-03-21T00:11:22;2.25;;;1.70;;
21721;SDS011;11023;48.274;7.794;2023-03-21T00:13:51;2.95;;;1.75;;
21721;SDS011;11023;48.274;7.794;2023-03-21T00:16:17;2.95;;;1.75;;
21721;SDS011;11023;48.274;7.794;2023-03-21T00:18:45;2.53;;;1.80;;
21721;SDS011;11023;48.274;7.794;2023-03-21T00:21:17;4.50;;;1.70;;
21721;SDS011;11023;48.274;7.794;2023-03-21T00:23:45;3.92;;;1.70;;
21721;SDS011;11023;48.274;7.794;2023-03-21T00:26:11;3.05;;;1.75;;
21721;SDS011;11023;48.274;7.794;2023-03-21T00:28:41;2.53;;;1.83;;
21721;SDS011;11023;48.274;7.794;2023-03-21T00:31:07;5.30;;;2.67;;
21721;SDS011;11023;48.274;7.794;2023-03-21T00:33:34;4.95;;;3.70;;
21721;SDS011;11023;48.274;7.794;2023-03-21T00:36:03;6.20;;;4.22;;
21721;SDS011;11023;48.274;7.794;2023-03-21T00:38:29;6.65;;;4.38;;
21721;SDS011;11023;48.274;7.794;2023-03-21T00:40:55;7.35;;;4.47;;
21721;SDS011;11023;48.274;7.794;2023-03-21T00:43:21;7.78;;;5.07;;
21721;SDS011;11023;48.274;7.794;2023-03-21T00:45:54;7.40;;;5.40;;
21721;SDS011;11023;48.274;7.794;2023-03-21T00:48:22;8.82;;;4.82;;
21721;SDS011;11023;48.274;7.794;2023-03-21T00:50:49;8.05;;;5.40;;
21721;SDS011;11023;48.274;7.794;2023-03-21T00:53:16;8.48;;;4.80;;
21721;SDS011;11023;48.274;7.794;2023-03-21T00:55:42;6.30;;;4.40;;
21721;SDS011;11023;48.274;7.794;2023-03-21T00:58:08;7.28;;;5.53;;
21721;SDS011;11023;48.274;7.794;2023-03-21T01:00:34;7.30;;;4.85;;
21721;SDS011;11023;48.274;7.794;2023-03-21T01:03:04;8.75;;;5.22;;
21721;SDS011;11023;48.274;7.794;2023-03-21T01:05:33;4.95;;;3.70;;
21721;SDS011;11023;48.274;7.794;2023-03-21T01:08:19;6.05;;;3.42;;
21721;SDS011;11023;48.274;7.794;2023-03-21T01:10:46;3.95;;;2.80;;
21721;SDS011;11023;48.274;7.794;2023-03-21T01:13:14;4.65;;;2.70;;
21721;SDS011;11023;48.274;7.794;2023-03-21T01:15:42;3.90;;;2.40;;
21721;SDS011;11023;48.274;7.794;2023-03-21T01:18:10;2.47;;;2.00;;
21721;SDS011;11023;48.274;7.794;2023-03-21T01:20:39;4.00;;;2.35;;
21721;SDS011;11023;48.274;7.794;2023-03-21T01:23:06;4.35;;;2.35;;
21721;SDS011;11023;48.274;7.794;2023-03-21T01:25:32;4.68;;;2.15;;
21721;SDS011;11023;48.274;7.794;2023-03-21T01:27:59;4.28;;;2.40;;
21721;SDS011;11023;48.274;7.794;2023-03-21T01:30:24;6.05;;;2.60;;
21721;SDS011;11023;48.274;7.794;2023-03-21T01:32:51;6.20;;;3.00;;
21721;SDS011;11023;48.274;7.794;2023-03-21T01:35:16;3.50;;;2.28;;
21721;SDS011;11023;48.274;7.794;2023-03-21T01:37:42;2.83;;;2.20;;
21721;SDS011;11023;48.274;7.794;2023-03-21T01:40:09;3.10;;;1.98;;
21721;SDS011;11023;48.274;7.794;2023-03-21T01:42:40;3.60;;;1.92;;
21721;SDS011;11023;48.274;7.794;2023-03-21T01:46:03;2.83;;;1.80;;
21721;SDS011;11023;48.274;7.794;2023-03-21T01:48:11;3.00;;;2.10;;
21721;SDS011;11023;48.274;7.794;2023-03-21T01:50:38;3.22;;;2.00;;
21721;SDS011;11023;48.274;7.794;2023-03-21T01:53:05;2.58;;;2.10;;
21721;SDS011;11023;48.274;7.794;2023-03-21T01:55:31;3.45;;;2.20;;
21721;SDS011;11023;48.274;7.794;2023-03-21T01:57:58;6.85;;;2.20;;
21721;SDS011;11023;48.274;7.794;2023-03-21T02:00:27;3.50;;;2.25;;
21721;SDS011;11023;48.274;7.794;2023-03-21T02:02:53;4.43;;;2.00;;
21721;SDS011;11023;48.274;7.794;2023-03-21T02:05:25;3.33;;;2.17;;
21721;SDS011;11023;48.274;7.794;2023-03-21T02:08:04;4.80;;;2.28;;
21721;SDS011;11023;48.274;7.794;2023-03-21T02:10:31;6.20;;;2.72;;
21721;SDS011;11023;48.274;7.794;2023-03-21T02:12:57;4.65;;;2.85;;
21721;SDS011;11023;48.274;7.794;2023-03-21T02:15:32;3.90;;;2.55;;
21721;SDS011;11023;48.274;7.794;2023-03-21T02:42:19;3.60;;;2.45;;
21721;SDS011;11023;48.274;7.794;2023-03-21T02:45:06;4.35;;;2.80;;
21721;SDS011;11023;48.274;7.794;2023-03-21T02:47:49;3.92;;;2.65;;
21721;SDS011;11023;48.274;7.794;2023-03-21T02:50:27;3.95;;;2.40;;
21721;SDS011;11023;48.274;7.794;2023-03-21T02:52:59;3.40;;;2.33;;
21721;SDS011;11023;48.274;7.794;2023-03-21T02:55:31;6.03;;;3.00;;
21721;SDS011;11023;48.274;7.794;2023-03-21T02:57:59;4.32;;;2.40;;
21721;SDS011;11023;48.274;7.794;2023-03-21T03:00:28;3.42;;;2.20;;
21721;SDS011;11023;48.274;7.794;2023-03-21T03:02:56;3.72;;;2.33;;
21721;SDS011;11023;48.274;7.794;2023-03-21T03:05:26;3.10;;;2.30;;
21721;SDS011;11023;48.274;7.794;2023-03-21T03:10:42;3.60;;;2.42;;
21721;SDS011;11023;48.274;7.794;2023-03-21T03:13:31;4.38;;;2.35;;
21721;SDS011;11023;48.274;7.794;2023-03-21T03:19:10;3.58;;;2.10;;
21721;SDS011;11023;48.274;7.794;2023-03-21T03:21:48;4.72;;;2.40;;
21721;SDS011;11023;48.274;7.794;2023-03-21T03:29:29;4.60;;;2.85;;
21721;SDS011;11023;48.274;7.794;2023-03-21T03:34:28;4.55;;;2.50;;
21721;SDS011;11023;48.274;7.794;2023-03-21T03:36:58;3.03;;;2.10;;
21721;SDS011;11023;48.274;7.794;2023-03-21T03:39:35;4.38;;;2.17;;
21721;SDS011;11023;48.274;7.794;2023-03-21T03:42:14;6.60;;;2.28;;
21721;SDS011;11023;48.274;7.794;2023-03-21T03:44:44;2.95;;;2.00;;
21721;SDS011;11023;48.274;7.794;2023-03-21T03:47:11;3.30;;;1.88;;
21721;SDS011;11023;48.274;7.794;2023-03-21T03:50:06;2.97;;;2.00;;
21721;SDS011;11023;48.274;7.794;2023-03-21T03:52:42;4.75;;;2.60;;
21721;SDS011;11023;48.274;7.794;2023-03-21T03:55:21;5.85;;;2.67;;
21721;SDS011;11023;48.274;7.794;2023-03-21T03:57:50;4.35;;;2.35;;
21721;SDS011;11023;48.274;7.794;2023-03-21T04:00:17;3.70;;;2.80;;
21721;SDS011;11023;48.274;7.794;2023-03-21T04:02:43;4.35;;;2.83;;
21721;SDS011;11023;48.274;7.794;2023-03-21T04:05:10;5.18;;;2.47;;
21721;SDS011;11023;48.274;7.794;2023-03-21T04:07:37;2.83;;;2.22;;
21721;SDS011;11023;48.274;7.794;2023-03-21T04:10:03;3.85;;;2.20;;
21721;SDS011;11023;48.274;7.794;2023-03-21T04:12:29;4.40;;;2.58;;
21721;SDS011;11023;48.274;7.794;2023-03-21T04:14:55;4.07;;;2.40;;
21721;SDS011;11023;48.274;7.794;2023-03-21T04:17:20;4.35;;;2.40;;
21721;SDS011;11023;48.274;7.794;2023-03-21T04:19:46;3.67;;;2.30;;
21721;SDS011;11023;48.274;7.794;2023-03-21T04:22:12;4.13;;;2.40;;
21721;SDS011;11023;48.274;7.794;2023-03-21T04:24:38;2.90;;;2.40;;
21721;SDS011;11023;48.274;7.794;2023-03-21T04:27:05;3.60;;;2.53;;
21721;SDS011;11023;48.274;7.794;2023-03-21T04:29:31;5.35;;;2.80;;
21721;SDS011;11023;48.274;7.794;2023-03-21T04:31:57;3.75;;;2.65;;
21721;SDS011;11023;48.274;7.794;2023-03-21T04:34:23;3.60;;;2.50;;
21721;SDS011;11023;48.274;7.794;2023-03-21T04:36:52;6.40;;;2.50;;
21721;SDS011;11023;48.274;7.794;2023-03-21T04:39:19;5.60;;;2.75;;
21721;SDS011;11023;48.274;7.794;2023-03-21T04:41:45;3.42;;;2.50;;
21721;SDS011;11023;48.274;7.794;2023-03-21T04:44:12;4.20;;;2.42;;
21721;SDS011;11023;48.274;7.794;2023-03-21T04:46:39;4.60;;;2.60;;
21721;SDS011;11023;48.274;7.794;2023-03-21T04:49:06;4.88;;;2.25;;
21721;SDS011;11023;48.274;7.794;2023-03-21T04:51:32;2.67;;;2.10;;
21721;SDS011;11023;48.274;7.794;2023-03-21T04:53:58;2.58;;;2.00;;
21721;SDS011;11023;48.274;7.794;2023-03-21T04:56:25;3.35;;;2.20;;
21721;SDS011;11023;48.274;7.794;2023-03-21T04:58:56;3.20;;;2.17;;
21721;SDS011;11023;48.274;7.794;2023-03-21T05:01:23;3.63;;;2.10;;
21721;SDS011;11023;48.274;7.794;2023-03-21T05:03:49;4.28;;;2.05;;
21721;SDS011;11023;48.274;7.794;2023-03-21T05:06:16;2.72;;;2.10;;
21721;SDS011;11023;48.274;7.794;2023-03-21T05:08:42;3.28;;;2.10;;
21721;SDS011;11023;48.274;7.794;2023-03-21T05:11:08;3.13;;;2.30;;
21721;SDS011;11023;48.274;7.794;2023-03-21T05:13:33;2.47;;;2.03;;
21721;SDS011;11023;48.274;7.794;2023-03-21T05:15:59;4.40;;;2.22;;
21721;SDS011;11023;48.274;7.794;2023-03-21T05:18:25;2.20;;;2.00;;
21721;SDS011;11023;48.274;7.794;2023-03-21T05:20:51;2.83;;;2.25;;
21721;SDS011;11023;48.274;7.794;2023-03-21T05:23:18;3.67;;;2.40;;
21721;SDS011;11023;48.274;7.794;2023-03-21T05:25:44;2.75;;;2.00;;
21721;SDS011;11023;48.274;7.794;2023-03-21T05:28:10;3.17;;;2.30;;
21721;SDS011;11023;48.274;7.794;2023-03-21T05:30:36;4.05;;;2.75;;
21721;SDS011;11023;48.274;7.794;2023-03-21T05:33:02;4.03;;;2.70;;
21721;SDS011;11023;48.274;7.794;2023-03-21T05:35:28;4.57;;;2.53;;
21721;SDS011;11023;48.274;7.794;2023-03-21T05:37:55;3.17;;;1.85;;
21721;SDS011;11023;48.274;7.794;2023-03-21T05:40:20;2.97;;;2.30;;
21721;SDS011;11023;48.274;7.794;2023-03-21T05:42:46;3.38;;;2.22;;
21721;SDS011;11023;48.274;7.794;2023-03-21T05:45:13;3.45;;;2.33;;
21721;SDS011;11023;48.274;7.794;2023-03-21T05:47:39;4.32;;;2.40;;
21721;SDS011;11023;48.274;7.794;2023-03-21T05:50:05;2.70;;;1.90;;
21721;SDS011;11023;48.274;7.794;2023-03-21T05:52:31;3.47;;;2.38;;
21721;SDS011;11023;48.274;7.794;2023-03-21T05:54:57;5.03;;;3.30;;
21721;SDS011;11023;48.274;7.794;2023-03-21T05:57:23;4.95;;;2.80;;
21721;SDS011;11023;48.274;7.794;2023-03-21T05:59:52;5.10;;;3.28;;
21721;SDS011;11023;48.274;7.794;2023-03-21T06:02:17;5.07;;;3.00;;
21721;SDS011;11023;48.274;7.794;2023-03-21T06:04:43;3.92;;;2.97;;
21721;SDS011;11023;48.274;7.794;2023-03-21T06:07:09;5.22;;;2.95;;
21721;SDS011;11023;48.274;7.794;2023-03-21T06:09:34;6.55;;;3.60;;
21721;SDS011;11023;48.274;7.794;2023-03-21T06:12:01;6.43;;;4.35;;
21721;SDS011;11023;48.274;7.794;2023-03-21T06:14:27;6.38;;;3.83;;
21721;SDS011;11023;48.274;7.794;2023-03-21T06:16:52;6.55;;;3.90;;
21721;SDS011;11023;48.274;7.794;2023-03-21T06:19:19;9.30;;;3.88;;
21721;SDS011;11023;48.274;7.794;2023-03-21T06:21:45;5.53;;;3.90;;
21721;SDS011;11023;48.274;7.794;2023-03-21T06:24:12;7.43;;;3.40;;
21721;SDS011;11023;48.274;7.794;2023-03-21T06:26:38;3.92;;;2.75;;
21721;SDS011;11023;48.274;7.794;2023-03-21T06:29:06;4.72;;;3.08;;
21721;SDS011;11023;48.274;7.794;2023-03-21T06:31:32;3.58;;;3.10;;
21721;SDS011;11023;48.274;7.794;2023-03-21T06:33:58;4.75;;;2.92;;
21721;SDS011;11023;48.274;7.794;2023-03-21T06:36:24;5.07;;;2.60;;
21721;SDS011;11023;48.274;7.794;2023-03-21T06:38:50;4.25;;;3.00;;
21721;SDS011;11023;48.274;7.794;2023-03-21T06:41:16;5.55;;;3.20;;
21721;SDS011;11023;48.274;7.794;2023-03-21T06:43:42;5.10;;;2.92;;
21721;SDS011;11023;48.274;7.794;2023-03-21T06:46:08;3.78;;;2.80;;
21721;SDS011;11023;48.274;7.794;2023-03-21T06:48:34;3.65;;;2.63;;
21721;SDS011;11023;48.274;7.794;2023-03-21T06:51:01;6.78;;;2.53;;
21721;SDS011;11023;48.274;7.794;2023-03-21T06:53:29;4.68;;;2.78;;
21721;SDS011;11023;48.274;7.794;2023-03-21T06:55:55;4.50;;;2.97;;
21721;SDS011;11023;48.274;7.794;2023-03-21T06:58:21;3.88;;;2.80;;
21721;SDS011;11023;48.274;7.794;2023-03-21T07:00:47;6.80;;;3.35;;
21721;SDS011;11023;48.274;7.794;2023-03-21T07:03:13;3.72;;;3.05;;
21721;SDS011;11023;48.274;7.794;2023-03-21T07:05:39;3.80;;;2.90;;
21721;SDS011;11023;48.274;7.794;2023-03-21T07:08:06;5.10;;;3.05;;
21721;SDS011;11023;48.274;7.794;2023-03-21T07:10:43;4.65;;;2.97;;
21721;SDS011;11023;48.274;7.794;2023-03-21T07:13:10;4.13;;;3.05;;
21721;SDS011;11023;48.274;7.794;2023-03-21T07:15:37;3.00;;;2.53;;
21721;SDS011;11023;48.274;7.794;2023-03-21T07:18:03;5.82;;;3.30;;
21721;SDS011;11023;48.274;7.794;2023-03-21T07:20:29;4.65;;;2.95;;
21721;SDS011;11023;48.274;7.794;2023-03-21T07:22:56;5.75;;;3.15;;
21721;SDS011;11023;48.274;7.794;2023-03-21T07:25:22;3.63;;;3.00;;
21721;SDS011;11023;48.274;7.794;2023-03-21T07:27:48;6.28;;;3.33;;
21721;SDS011;11023;48.274;7.794;2023-03-21T07:30:14;4.85;;;3.10;;
21721;SDS011;11023;48.274;7.794;2023-03-21T07:32:40;5.38;;;3.15;;
21721;SDS011;11023;48.274;7.794;2023-03-21T07:35:07;5.78;;;3.33;;
21721;SDS011;11023;48.274;7.794;2023-03-21T07:37:37;5.97;;;3.05;;
21721;SDS011;11023;48.274;7.794;2023-03-21T07:40:04;4.28;;;3.20;;
21721;SDS011;11023;48.274;7.794;2023-03-21T07:42:34;7.13;;;3.55;;
21721;SDS011;11023;48.274;7.794;2023-03-21T07:45:00;5.15;;;3.38;;
21721;SDS011;11023;48.274;7.794;2023-03-21T07:47:29;6.15;;;3.35;;
21721;SDS011;11023;48.274;7.794;2023-03-21T07:49:55;5.35;;;3.72;;
21721;SDS011;11023;48.274;7.794;2023-03-21T07:52:20;5.25;;;3.60;;
21721;SDS011;11023;48.274;7.794;2023-03-21T07:54:46;6.55;;;3.47;;
21721;SDS011;11023;48.274;7.794;2023-03-21T07:57:12;4.93;;;3.38;;
21721;SDS011;11023;48.274;7.794;2023-03-21T07:59:37;8.90;;;3.58;;
21721;SDS011;11023;48.274;7.794;2023-03-21T08:02:03;5.97;;;3.67;;
21721;SDS011;11023;48.274;7.794;2023-03-21T08:04:29;6.50;;;4.50;;
21721;SDS011;11023;48.274;7.794;2023-03-21T08:06:54;5.40;;;3.78;;
21721;SDS011;11023;48.274;7.794;2023-03-21T08:09:21;6.00;;;3.80;;
21721;SDS011;11023;48.274;7.794;2023-03-21T08:11:47;7.47;;;3.33;;
21721;SDS011;11023;48.274;7.794;2023-03-21T08:14:12;5.45;;;3.50;;
21721;SDS011;11023;48.274;7.794;2023-03-21T08:16:38;5.40;;;3.17;;
21721;SDS011;11023;48.274;7.794;2023-03-21T08:19:03;5.07;;;2.80;;
21721;SDS011;11023;48.274;7.794;2023-03-21T08:21:29;3.63;;;2.53;;
21721;SDS011;11023;48.274;7.794;2023-03-21T08:23:55;3.80;;;2.50;;
21721;SDS011;11023;48.274;7.794;2023-03-21T08:26:21;4.72;;;2.20;;
21721;SDS011;11023;48.274;7.794;2023-03-21T08:28:50;4.80;;;2.25;;
21721;SDS011;11023;48.274;7.794;2023-03-21T08:31:16;3.95;;;2.03;;
21721;SDS011;11023;48.274;7.794;2023-03-21T08:33:42;3.22;;;1.98;;
21721;SDS011;11023;48.274;7.794;2023-03-21T08:36:08;2.97;;;1.65;;
21721;SDS011;11023;48.274;7.794;2023-03-21T08:38:34;3.90;;;1.95;;
21721;SDS011;11023;48.274;7.794;2023-03-21T08:41:01;2.22;;;1.70;;
21721;SDS011;11023;48.274;7.794;2023-03-21T08:43:27;1.88;;;1.50;;
21721;SDS011;11023;48.274;7.794;2023-03-21T08:45:53;3.40;;;1.75;;
21721;SDS011;11023;48.274;7.794;2023-03-21T08:48:19;1.67;;;1.58;;
21721;SDS011;11023;48.274;7.794;2023-03-21T08:50:45;4.00;;;2.15;;
21721;SDS011;11023;48.274;7.794;2023-03-21T08:53:11;2.55;;;1.88;;
21721;SDS011;11023;48.274;7.794;2023-03-21T08:55:37;3.35;;;2.45;;
21721;SDS011;11023;48.274;7.794;2023-03-21T08:58:02;3.55;;;1.98;;
21721;SDS011;11023;48.274;7.794;2023-03-21T09:00:28;2.90;;;1.90;;
21721;SDS011;11023;48.274;7.794;2023-03-21T09:02:54;4.78;;;1.90;;
21721;SDS011;11023;48.274;7.794;2023-03-21T09:05:21;2.30;;;1.95;;
21721;SDS011;11023;48.274;7.794;2023-03-21T09:07:49;4.30;;;2.17;;
21721;SDS011;11023;48.274;7.794;2023-03-21T09:10:17;5.80;;;2.58;;
21721;SDS011;11023;48.274;7.794;2023-03-21T09:12:44;6.15;;;2.90;;
21721;SDS011;11023;48.274;7.794;2023-03-21T09:15:11;5.82;;;2.67;;
21721;SDS011;11023;48.274;7.794;2023-03-21T09:17:37;6.05;;;3.00;;
21721;SDS011;11023;48.274;7.794;2023-03-21T09:20:07;5.13;;;3.00;;
21721;SDS011;11023;48.274;7.794;2023-03-21T09:22:44;3.42;;;2.45;;
21721;SDS011;11023;48.274;7.794;2023-03-21T09:25:11;3.33;;;2.50;;
21721;SDS011;11023;48.274;7.794;2023-03-21T09:27:38;6.25;;;2.97;;
21721;SDS011;11023;48.274;7.794;2023-03-21T09:30:04;3.25;;;2.60;;
21721;SDS011;11023;48.274;7.794;2023-03-21T09:32:31;3.65;;;2.80;;
21721;SDS011;11023;48.274;7.794;2023-03-21T09:34:58;3.47;;;2.47;;
21721;SDS011;11023;48.274;7.794;2023-03-21T09:37:23;6.47;;;2.78;;
21721;SDS011;11023;48.274;7.794;2023-03-21T09:39:49;3.50;;;2.85;;
21721;SDS011;11023;48.274;7.794;2023-03-21T09:45:07;4.57;;;2.60;;
21721;SDS011;11023;48.274;7.794;2023-03-21T09:47:40;2.97;;;2.40;;
21721;SDS011;11023;48.274;7.794;2023-03-21T09:50:25;6.53;;;2.80;;
21721;SDS011;11023;48.274;7.794;2023-03-21T09:52:59;4.95;;;2.83;;
21721;SDS011;11023;48.274;7.794;2023-03-21T10:00:39;4.93;;;2.90;;
21721;SDS011;11023;48.274;7.794;2023-03-21T10:03:21;4.07;;;3.05;;
21721;SDS011;11023;48.274;7.794;2023-03-21T10:05:50;4.07;;;3.10;;
21721;SDS011;11023;48.274;7.794;2023-03-21T10:08:23;4.70;;;2.60;;
21721;SDS011;11023;48.274;7.794;2023-03-21T10:10:55;4.53;;;3.03;;
21721;SDS011;11023;48.274;7.794;2023-03-21T10:13:31;4.88;;;3.00;;
21721;SDS011;11023;48.274;7.794;2023-03-21T10:15:59;4.00;;;2.92;;
21721;SDS011;11023;48.274;7.794;2023-03-21T10:18:29;5.32;;;3.53;;
21721;SDS011;11023;48.274;7.794;2023-03-21T10:20:55;3.72;;;3.13;;
21721;SDS011;11023;48.274;7.794;2023-03-21T10:23:21;7.28;;;3.50;;
21721;SDS011;11023;48.274;7.794;2023-03-21T10:25:55;5.85;;;3.40;;
21721;SDS011;11023;48.274;7.794;2023-03-21T10:28:25;5.10;;;3.47;;
21721;SDS011;11023;48.274;7.794;2023-03-21T10:30:57;8.10;;;3.50;;
21721;SDS011;11023;48.274;7.794;2023-03-21T10:33:37;6.30;;;3.70;;
21721;SDS011;11023;48.274;7.794;2023-03-21T10:36:10;4.45;;;3.10;;
21721;SDS011;11023;48.274;7.794;2023-03-21T10:38:48;9.05;;;3.55;;
21721;SDS011;11023;48.274;7.794;2023-03-21T10:41:19;4.68;;;3.17;;
21721;SDS011;11023;48.274;7.794;2023-03-21T10:44:01;6.22;;;3.30;;
21721;SDS011;11023;48.274;7.794;2023-03-21T10:46:55;3.70;;;3.00;;
21721;SDS011;11023;48.274;7.794;2023-03-21T10:49:23;5.35;;;2.92;;
21721;SDS011;11023;48.274;7.794;2023-03-21T10:51:51;6.07;;;3.17;;
21721;SDS011;11023;48.274;7.794;2023-03-21T10:54:20;4.05;;;2.63;;
21721;SDS011;11023;48.274;7.794;2023-03-21T10:59:25;3.78;;;2.30;;
21721;SDS011;11023;48.274;7.794;2023-03-21T11:01:53;4.88;;;3.25;;
21721;SDS011;11023;48.274;7.794;2023-03-21T11:04:21;4.85;;;2.95;;
21721;SDS011;11023;48.274;7.794;2023-03-21T11:06:57;4.63;;;3.00;;
21721;SDS011;11023;48.274;7.794;2023-03-21T11:09:43;3.47;;;2.67;;
21721;SDS011;11023;48.274;7.794;2023-03-21T11:12:32;3.45;;;2.63;;
21721;SDS011;11023;48.274;7.794;2023-03-21T11:15:25;4.05;;;2.60;;
21721;SDS011;11023;48.274;7.794;2023-03-21T11:17:49;3.53;;;2.58;;
21721;SDS011;11023;48.274;7.794;2023-03-21T11:20:16;3.60;;;2.40;;
21721;SDS011;11023;48.274;7.794;2023-03-21T11:22:43;3.90;;;2.53;;
21721;SDS011;11023;48.274;7.794;2023-03-21T11:25:18;6.53;;;2.60;;
21721;SDS011;11023;48.274;7.794;2023-03-21T11:27:49;3.00;;;2.53;;
21721;SDS011;11023;48.274;7.794;2023-03-21T11:30:24;3.83;;;2.55;;
21721;SDS011;11023;48.274;7.794;2023-03-21T11:32:55;3.08;;;2.75;;
21721;SDS011;11023;48.274;7.794;2023-03-21T11:35:22;4.05;;;2.80;;
21721;SDS011;11023;48.274;7.794;2023-03-21T11:37:52;4.68;;;2.70;;
21721;SDS011;11023;48.274;7.794;2023-03-21T11:40:23;2.65;;;2.45;;
21721;SDS011;11023;48.274;7.794;2023-03-21T11:45:20;5.18;;;3.08;;
21721;SDS011;11023;48.274;7.794;2023-03-21T11:47:47;4.68;;;2.72;;
21721;SDS011;11023;48.274;7.794;2023-03-21T11:50:21;4.65;;;2.85;;
21721;SDS011;11023;48.274;7.794;2023-03-21T11:53:04;3.38;;;2.70;;
21721;SDS011;11023;48.274;7.794;2023-03-21T11:58:50;5.90;;;3.10;;
21721;SDS011;11023;48.274;7.794;2023-03-21T12:01:56;4.72;;;2.42;;
21721;SDS011;11023;48.274;7.794;2023-03-21T12:15:33;4.00;;;2.40;;
21721;SDS011;11023;48.274;7.794;2023-03-21T12:18:05;5.32;;;2.78;;
21721;SDS011;11023;48.274;7.794;2023-03-21T12:20:42;4.07;;;2.72;;
21721;SDS011;11023;48.274;7.794;2023-03-21T12:26:29;3.53;;;2.70;;
21721;SDS011;11023;48.274;7.794;2023-03-21T12:34:24;6.05;;;2.60;;
21721;SDS011;11023;48.274;7.794;2023-03-21T12:39:30;4.88;;;2.40;;
21721;SDS011;11023;48.274;7.794;2023-03-21T12:45:07;4.05;;;2.78;;
21721;SDS011;11023;48.274;7.794;2023-03-21T12:50:50;5.00;;;3.10;;
21721;SDS011;11023;48.274;7.794;2023-03-21T12:53:29;4.43;;;2.85;;
21721;SDS011;11023;48.274;7.794;2023-03-21T12:56:07;4.63;;;2.50;;
21721;SDS011;11023;48.274;7.794;2023-03-21T12:58:48;5.65;;;2.55;;
21721;SDS011;11023;48.274;7.794;2023-03-21T13:01:33;4.03;;;2.40;;
21721;SDS011;11023;48.274;7.794;2023-03-21T13:06:51;3.35;;;2.58;;
21721;SDS011;11023;48.274;7.794;2023-03-21T13:09:41;5.05;;;2.58;;
21721;SDS011;11023;48.274;7.794;2023-03-21T13:12:18;6.47;;;2.83;;
21721;SDS011;11023;48.274;7.794;2023-03-21T13:18:30;3.55;;;2.67;;
21721;SDS011;11023;48.274;7.794;2023-03-21T13:20:52;4.50;;;2.75;;
21721;SDS011;11023;48.274;7.794;2023-03-21T13:23:21;3.33;;;2.55;;
21721;SDS011;11023;48.274;7.794;2023-03-21T13:25:57;4.90;;;2.72;;
21721;SDS011;11023;48.274;7.794;2023-03-21T13:28:26;2.90;;;2.60;;
21721;SDS011;11023;48.274;7.794;2023-03-21T13:33:48;3.92;;;2.55;;
21721;SDS011;11023;48.274;7.794;2023-03-21T13:36:17;4.78;;;2.72;;
21721;SDS011;11023;48.274;7.794;2023-03-21T13:39:00;4.30;;;2.55;;
21721;SDS011;11023;48.274;7.794;2023-03-21T13:41:31;3.00;;;2.47;;
21721;SDS011;11023;48.274;7.794;2023-03-21T13:54:01;3.72;;;2.70;;
21721;SDS011;11023;48.274;7.794;2023-03-21T13:56:27;3.05;;;2.33;;
21721;SDS011;11023;48.274;7.794;2023-03-21T13:58:58;4.35;;;3.20;;
21721;SDS011;11023;48.274;7.794;2023-03-21T14:01:32;3.75;;;2.55;;
21721;SDS011;11023;48.274;7.794;2023-03-21T14:04:15;4.75;;;2.35;;
21721;SDS011;11023;48.274;7.794;2023-03-21T14:06:53;3.08;;;2.20;;
21721;SDS011;11023;48.274;7.794;2023-03-21T14:09:35;5.18;;;2.00;;
21721;SDS011;11023;48.274;7.794;2023-03-21T14:12:06;3.05;;;2.63;;
21721;SDS011;11023;48.274;7.794;2023-03-21T14:15:21;2.38;;;2.00;;
21721;SDS011;11023;48.274;7.794;2023-03-21T14:17:31;2.97;;;1.90;;
21721;SDS011;11023;48.274;7.794;2023-03-21T14:20:00;3.55;;;2.10;;
21721;SDS011;11023;48.274;7.794;2023-03-21T14:22:38;3.25;;;1.80;;
21721;SDS011;11023;48.274;7.794;2023-03-21T14:25:06;3.50;;;2.00;;
21721;SDS011;11023;48.274;7.794;2023-03-21T14:27:37;5.57;;;2.50;;
21721;SDS011;11023;48.274;7.794;2023-03-21T14:30:05;2.58;;;2.15;;
21721;SDS011;11023;48.274;7.794;2023-03-21T14:32:35;4.82;;;2.17;;
21721;SDS011;11023;48.274;7.794;2023-03-21T14:35:01;4.78;;;2.22;;
21721;SDS011;11023;48.274;7.794;2023-03-21T14:37:39;4.13;;;2.17;;
21721;SDS011;11023;48.274;7.794;2023-03-21T14:40:19;2.63;;;2.03;;
21721;SDS011;11023;48.274;7.794;2023-03-21T14:42:46;6.07;;;2.60;;
21721;SDS011;11023;48.274;7.794;2023-03-21T14:45:16;4.00;;;2.13;;
21721;SDS011;11023;48.274;7.794;2023-03-21T14:47:56;6.78;;;2.42;;
21721;SDS011;11023;48.274;7.794;2023-03-21T14:50:23;3.22;;;2.10;;
21721;SDS011;11023;48.274;7.794;2023-03-21T14:52:56;4.53;;;1.90;;
21721;SDS011;11023;48.274;7.794;2023-03-21T14:55:22;3.95;;;2.80;;
21721;SDS011;11023;48.274;7.794;2023-03-21T14:57:48;5.22;;;2.90;;
21721;SDS011;11023;48.274;7.794;2023-03-21T15:00:20;4.28;;;2.80;;
21721;SDS011;11023;48.274;7.794;2023-03-21T15:02:49;2.42;;;2.22;;
21721;SDS011;11023;48.274;7.794;2023-03-21T15:08:00;3.33;;;2.20;;
21721;SDS011;11023;48.274;7.794;2023-03-21T15:10:30;2.20;;;1.98;;
21721;SDS011;11023;48.274;7.794;2023-03-21T15:13:00;2.88;;;2.10;;
21721;SDS011;11023;48.274;7.794;2023-03-21T15:15:36;3.78;;;2.10;;
21721;SDS011;11023;48.274;7.794;2023-03-21T15:18:03;2.20;;;1.88;;
21721;SDS011;11023;48.274;7.794;2023-03-21T15:20:31;5.60;;;2.35;;
21721;SDS011;11023;48.274;7.794;2023-03-21T15:23:00;6.43;;;2.60;;
21721;SDS011;11023;48.274;7.794;2023-03-21T15:25:31;4.60;;;2.70;;
21721;SDS011;11023;48.274;7.794;2023-03-21T15:28:00;4.80;;;2.58;;
21721;SDS011;11023;48.274;7.794;2023-03-21T15:30:27;2.95;;;2.65;;
21721;SDS011;11023;48.274;7.794;2023-03-21T15:32:54;4.38;;;2.10;;
21721;SDS011;11023;48.274;7.794;2023-03-21T15:35:24;4.47;;;2.30;;
21721;SDS011;11023;48.274;7.794;2023-03-21T15:38:21;4.10;;;2.30;;
21721;SDS011;11023;48.274;7.794;2023-03-21T15:41:15;5.78;;;2.10;;
21721;SDS011;11023;48.274;7.794;2023-03-21T15:43:45;3.13;;;2.13;;
21721;SDS011;11023;48.274;7.794;2023-03-21T15:46:13;4.60;;;2.30;;
21721;SDS011;11023;48.274;7.794;2023-03-21T15:48:41;4.65;;;2.20;;
21721;SDS011;11023;48.274;7.794;2023-03-21T15:51:13;2.40;;;2.20;;
21721;SDS011;11023;48.274;7.794;2023-03-21T15:53:46;4.30;;;2.85;;
21721;SDS011;11023;48.274;7.794;2023-03-21T15:56:13;9.07;;;5.25;;
21721;SDS011;11023;48.274;7.794;2023-03-21T15:58:44;4.22;;;2.78;;
21721;SDS011;11023;48.274;7.794;2023-03-21T16:01:13;4.85;;;2.40;;
21721;SDS011;11023;48.274;7.794;2023-03-21T16:03:43;3.70;;;2.65;;
21721;SDS011;11023;48.274;7.794;2023-03-21T16:06:20;4.20;;;2.78;;
21721;SDS011;11023;48.274;7.794;2023-03-21T16:11:18;4.80;;;2.28;;
21721;SDS011;11023;48.274;7.794;2023-03-21T16:13:46;4.47;;;2.42;;
21721;SDS011;11023;48.274;7.794;2023-03-21T16:16:13;2.90;;;2.53;;
21721;SDS011;11023;48.274;7.794;2023-03-21T16:18:42;4.82;;;2.15;;
21721;SDS011;11023;48.274;7.794;2023-03-21T16:21:11;3.42;;;2.05;;
21721;SDS011;11023;48.274;7.794;2023-03-21T16:23:38;4.10;;;2.13;;
21721;SDS011;11023;48.274;7.794;2023-03-21T16:26:05;3.13;;;2.10;;
21721;SDS011;11023;48.274;7.794;2023-03-21T16:28:31;3.47;;;2.10;;
21721;SDS011;11023;48.274;7.794;2023-03-21T16:30:57;3.78;;;2.40;;
21721;SDS011;11023;48.274;7.794;2023-03-21T16:33:22;4.75;;;2.28;;
21721;SDS011;11023;48.274;7.794;2023-03-21T16:35:49;4.35;;;3.00;;
21721;SDS011;11023;48.274;7.794;2023-03-21T16:38:16;4.30;;;2.47;;
21721;SDS011;11023;48.274;7.794;2023-03-21T16:40:42;6.78;;;2.70;;
21721;SDS011;11023;48.274;7.794;2023-03-21T16:43:08;7.70;;;3.55;;
21721;SDS011;11023;48.274;7.794;2023-03-21T16:45:35;4.65;;;2.95;;
21721;SDS011;11023;48.274;7.794;2023-03-21T16:48:01;5.60;;;3.25;;
21721;SDS011;11023;48.274;7.794;2023-03-21T16:50:31;5.07;;;3.03;;